createdAt,value
2022-11-18T00:01:47.452Z,96747.94
2022-11-18T00:04:16.522Z,96740.53
2022-11-18T00:06:45.459Z,96743.81
2022-11-18T00:09:14.809Z,96753.41
2022-11-18T00:12:03.113Z,96748.53
2022-11-18T00:14:32.028Z,96757.47
2022-11-18T00:17:03.512Z,96758.25
2022-11-18T00:19:35.025Z,96756.59
2022-11-18T00:22:04.988Z,96754.91
2022-11-18T00:24:34.819Z,96750.13
2022-11-18T00:27:05.569Z,96759.59
2022-11-18T00:29:34.535Z,96757.16
2022-11-18T00:32:03.487Z,96758.59
2022-11-18T00:34:32.519Z,96760.19
2022-11-18T00:37:01.480Z,96754.53
2022-11-18T00:39:30.416Z,96739.31
2022-11-18T00:42:16.708Z,96746.47
2022-11-18T00:44:47.098Z,96727.28
2022-11-18T00:47:16.114Z,96727.28
2022-11-18T00:49:45.044Z,96722.25
2022-11-18T00:52:13.959Z,96718.69
2022-11-18T00:54:42.907Z,96711.84
2022-11-18T00:57:12.008Z,96717.69
2022-11-18T00:59:40.980Z,96717.16
2022-11-18T01:02:11.290Z,96732.13
2022-11-18T01:04:40.268Z,96727.59
2022-11-18T01:07:09.320Z,96728.47
2022-11-18T01:09:38.280Z,96720.09
2022-11-18T01:12:24.878Z,96723.38
2022-11-18T01:14:53.839Z,96705.19
2022-11-18T01:17:24.176Z,96695.19
2022-11-18T01:19:53.159Z,96690.25
2022-11-18T01:22:22.160Z,96679.53
2022-11-18T01:24:51.210Z,96680.31
2022-11-18T01:27:20.134Z,96670.00
2022-11-18T01:29:49.216Z,96669.84
2022-11-18T01:32:24.544Z,96663.84
2022-11-18T01:34:55.524Z,96667.63
2022-11-18T01:37:24.564Z,96656.25
2022-11-18T01:39:53.588Z,96657.13
2022-11-18T01:42:25.808Z,96662.53
2022-11-18T01:45:05.142Z,96645.66
2022-11-18T01:47:41.616Z,96649.09
2022-11-18T01:50:13.592Z,96634.19
2022-11-18T01:52:45.236Z,96622.75
2022-11-18T01:55:22.855Z,96616.09
2022-11-18T01:57:57.979Z,96603.06
2022-11-18T02:00:27.058Z,96597.91
2022-11-18T02:02:56.330Z,96594.69
2022-11-18T02:05:27.651Z,96594.25
2022-11-18T02:07:56.634Z,96596.19
2022-11-18T02:10:26.211Z,96605.28
2022-11-18T02:12:56.745Z,96599.69
2022-11-18T02:15:49.014Z,96587.09
2022-11-18T02:18:32.091Z,96581.66
2022-11-18T02:21:22.738Z,96583.25
2022-11-18T02:24:28.580Z,96592.63
2022-11-18T02:27:58.048Z,96607.72
2022-11-18T02:30:33.527Z,96633.69
2022-11-18T02:33:09.316Z,96637.97
2022-11-18T02:35:44.169Z,96625.72
2022-11-18T02:38:19.143Z,96599.69
2022-11-18T02:40:55.293Z,96580.38
2022-11-18T02:43:29.943Z,96584.81
2022-11-18T02:46:05.223Z,96586.38
2022-11-18T02:48:38.827Z,96588.88
2022-11-18T02:51:10.493Z,96596.84
2022-11-18T02:53:42.492Z,96610.78
2022-11-18T02:56:11.965Z,96609.56
2022-11-18T02:58:40.924Z,96596.75
2022-11-18T03:01:20.779Z,96596.69
2022-11-18T03:03:50.650Z,96589.03
2022-11-18T03:06:29.952Z,96588.69
2022-11-18T03:09:13.771Z,96587.25
2022-11-18T03:11:52.551Z,96586.47
2022-11-18T03:14:34.143Z,96587.25
2022-11-18T03:17:13.152Z,96593.66
2022-11-18T03:20:01.224Z,96622.75
2022-11-18T03:22:35.832Z,96628.53
2022-11-18T03:25:09.667Z,96614.00
2022-11-18T03:27:47.277Z,96604.22
2022-11-18T03:30:21.519Z,96595.13
2022-11-18T03:32:57.226Z,96602.91
2022-11-18T03:35:30.639Z,96598.50
2022-11-18T03:38:07.052Z,96588.47
2022-11-18T03:40:39.559Z,96582.09
2022-11-18T03:43:15.090Z,96566.19
2022-11-18T03:45:48.455Z,96569.34
2022-11-18T03:48:21.690Z,96587.31
2022-11-18T03:50:56.543Z,96585.81
2022-11-18T03:53:29.943Z,96581.31
2022-11-18T03:56:12.776Z,96573.34
2022-11-18T03:58:53.124Z,96578.00
2022-11-18T04:01:33.961Z,96570.66
2022-11-18T04:04:04.428Z,96562.78
2022-11-18T04:06:42.742Z,96547.66
2022-11-18T04:09:18.024Z,96541.31
2022-11-18T04:12:04.397Z,96543.75
2022-11-18T04:14:36.576Z,96539.59
2022-11-18T04:17:10.285Z,96542.88
2022-11-18T04:19:41.519Z,96535.00
2022-11-18T04:22:11.605Z,96539.31
2022-11-18T04:24:41.179Z,96552.81
2022-11-18T04:27:10.201Z,96550.91
2022-11-18T04:29:39.216Z,96552.97
2022-11-18T04:32:08.334Z,96551.75
2022-11-18T04:34:37.395Z,96554.19
2022-11-18T04:37:07.767Z,96545.47
2022-11-18T04:39:36.751Z,96540.91
2022-11-18T04:42:06.046Z,96534.91
2022-11-18T04:44:35.860Z,96537.03
2022-11-18T04:47:08.110Z,96543.69
2022-11-18T04:49:37.359Z,96544.13
2022-11-18T04:52:08.132Z,96548.78
2022-11-18T04:54:37.291Z,96551.56
2022-11-18T04:57:06.239Z,96540.84
2022-11-18T04:59:35.359Z,96536.81
2022-11-18T05:02:04.634Z,96542.97
2022-11-18T05:04:35.901Z,96548.06
2022-11-18T05:07:08.358Z,96548.91
2022-11-18T05:09:37.400Z,96555.41
2022-11-18T05:12:24.365Z,96551.13
2022-11-18T05:14:53.459Z,96549.53
2022-11-18T05:17:22.648Z,96561.22
2022-11-18T05:19:52.766Z,96560.38
2022-11-18T05:22:23.374Z,96551.84
2022-11-18T05:24:52.538Z,96546.69
2022-11-18T05:27:21.756Z,96550.63
2022-11-18T05:29:51.003Z,96564.88
2022-11-18T05:32:20.089Z,96565.66
2022-11-18T05:34:49.272Z,96552.50
2022-11-18T05:37:18.353Z,96554.41
2022-11-18T05:39:48.808Z,96552.06
2022-11-18T05:42:35.408Z,96548.41
2022-11-18T05:45:05.213Z,96542.31
2022-11-18T05:47:54.261Z,96533.94
2022-11-18T05:50:23.236Z,96522.34
2022-11-18T05:52:52.169Z,96518.63
2022-11-18T05:55:25.739Z,96518.25
2022-11-18T05:57:54.710Z,96509.47
2022-11-18T06:00:23.771Z,96531.84
2022-11-18T06:02:56.696Z,96506.03
2022-11-18T06:05:27.559Z,96505.53
2022-11-18T06:07:58.177Z,96501.59
2022-11-18T06:10:34.367Z,96523.84
2022-11-18T06:13:08.768Z,96520.56
2022-11-18T06:15:42.808Z,96521.41
2022-11-18T06:18:18.280Z,96527.94
2022-11-18T06:20:48.109Z,96522.88
2022-11-18T06:23:17.495Z,96517.78
2022-11-18T06:25:48.867Z,96528.94
2022-11-18T06:28:19.252Z,96528.94
2022-11-18T06:30:48.325Z,96527.44
2022-11-18T06:33:17.432Z,96521.00
2022-11-18T06:35:46.751Z,96522.59
2022-11-18T06:38:15.696Z,96517.88
2022-11-18T06:40:45.113Z,96519.88
2022-11-18T06:43:47.258Z,96509.63
2022-11-18T06:46:36.088Z,96522.22
2022-11-18T06:49:05.449Z,96531.44
2022-11-18T06:51:34.400Z,96539.03
2022-11-18T06:54:09.087Z,96543.19
2022-11-18T06:56:39.741Z,96546.25
2022-11-18T06:59:10.203Z,96553.06
2022-11-18T07:01:42.148Z,96561.78
2022-11-18T07:04:11.215Z,96548.25
2022-11-18T07:06:40.305Z,96544.19
2022-11-18T07:09:09.392Z,96549.63
2022-11-18T07:11:40.436Z,96549.03
2022-11-18T07:14:11.248Z,96555.75
2022-11-18T07:16:40.509Z,96565.34
2022-11-18T07:19:12.239Z,96563.41
2022-11-18T07:21:43.422Z,96566.66
2022-11-18T07:24:17.459Z,96563.94
2022-11-18T07:26:46.648Z,96564.22
2022-11-18T07:29:17.251Z,96560.28
2022-11-18T07:31:46.416Z,96560.28
2022-11-18T07:34:15.740Z,96566.50
2022-11-18T07:36:44.807Z,96564.78
2022-11-18T07:39:14.427Z,96575.09
2022-11-18T07:41:43.643Z,96579.81
2022-11-18T07:44:13.441Z,96590.75
2022-11-18T07:46:43.956Z,96592.25
2022-11-18T07:49:14.290Z,96602.03
2022-11-18T07:51:43.396Z,96604.81
2022-11-18T07:54:14.516Z,96600.41
2022-11-18T07:56:43.545Z,96592.25
2022-11-18T07:59:12.805Z,96592.63
2022-11-18T08:01:43.330Z,96600.34
2022-11-18T08:04:15.333Z,96606.16
2022-11-18T08:06:44.449Z,96599.84
2022-11-18T08:09:13.733Z,96599.69
2022-11-18T08:11:42.729Z,96603.91
2022-11-18T08:14:11.837Z,96601.91
2022-11-18T08:16:40.764Z,96603.28
2022-11-18T08:19:11.179Z,96601.41
2022-11-18T08:21:40.155Z,96611.00
2022-11-18T08:24:11.838Z,96614.00
2022-11-18T08:26:40.944Z,96608.44
2022-11-18T08:29:10.155Z,96597.66
2022-11-18T08:31:39.245Z,96604.13
2022-11-18T08:34:10.474Z,96602.53
2022-11-18T08:36:40.472Z,96593.63
2022-11-18T08:39:12.733Z,96591.72
2022-11-18T08:41:44.321Z,96584.56
2022-11-18T08:44:15.350Z,96571.31
2022-11-18T08:46:45.559Z,96580.41
2022-11-18T08:49:16.699Z,96578.22
2022-11-18T08:51:46.174Z,96579.59
2022-11-18T08:54:15.229Z,96575.44
2022-11-18T08:56:44.213Z,96583.34
2022-11-18T08:59:13.772Z,96589.31
2022-11-18T09:01:43.675Z,96585.13
2022-11-18T09:04:13.209Z,96591.50
2022-11-18T09:06:43.583Z,96582.47
2022-11-18T09:09:12.644Z,96590.16
2022-11-18T09:11:42.333Z,96579.16
2022-11-18T09:17:03.858Z,96582.16
2022-11-18T09:19:46.695Z,96579.59
2022-11-18T09:22:17.999Z,96581.97
2022-11-18T09:24:46.999Z,96577.06
2022-11-18T09:27:17.505Z,96576.72
2022-11-18T09:29:47.206Z,96583.91
2022-11-18T09:32:16.279Z,96595.06
2022-11-18T09:34:45.329Z,96593.50
2022-11-18T09:37:14.291Z,96597.31
2022-11-18T09:39:44.829Z,96603.94
2022-11-18T09:42:29.300Z,96603.94
2022-11-18T09:45:18.227Z,96609.19
2022-11-18T09:47:51.581Z,96612.13
2022-11-18T09:53:21.261Z,96612.56
2022-11-18T09:55:53.276Z,96613.69
2022-11-18T09:58:32.408Z,96616.34
2022-11-18T10:01:02.622Z,96617.22
2022-11-18T10:03:34.394Z,96621.88
2022-11-18T10:06:19.184Z,96615.66
2022-11-18T10:09:14.687Z,96610.56
2022-11-18T10:11:52.906Z,96612.50
2022-11-18T10:14:35.557Z,96611.78
2022-11-18T10:17:19.679Z,96608.31
2022-11-18T10:19:56.518Z,96600.19
2022-11-18T10:22:31.209Z,96603.59
2022-11-18T10:25:01.544Z,96603.44
2022-11-18T10:27:40.714Z,96597.88
2022-11-18T10:30:16.904Z,96604.91
2022-11-18T10:33:05.713Z,96595.41
2022-11-18T10:35:38.057Z,96594.88
2022-11-18T10:38:18.345Z,96601.69
2022-11-18T10:40:58.699Z,96593.06
2022-11-18T10:43:48.878Z,96588.25
2022-11-18T10:46:26.496Z,96575.06
2022-11-18T10:49:17.518Z,96578.28
2022-11-18T10:51:49.459Z,96568.53
2022-11-18T10:54:21.213Z,96558.22
2022-11-18T10:56:57.975Z,96554.63
2022-11-18T10:59:33.775Z,96538.53
2022-11-18T11:02:12.393Z,96535.78
2022-11-18T11:04:42.776Z,96544.34
2022-11-18T11:07:34.961Z,96542.69
2022-11-18T11:10:23.498Z,96544.16
2022-11-18T11:12:59.815Z,96543.38
2022-11-18T11:15:39.527Z,96544.25
2022-11-18T11:18:35.634Z,96546.72
2022-11-18T11:21:04.567Z,96554.56
2022-11-18T11:23:34.591Z,96556.31
2022-11-18T11:29:06.303Z,96552.78
2022-11-18T11:31:50.470Z,96547.38
2022-11-18T11:34:27.077Z,96554.00
2022-11-18T11:37:05.398Z,96549.63
2022-11-18T11:39:54.909Z,96556.81
2022-11-18T11:42:39.954Z,96560.63
2022-11-18T11:45:25.161Z,96560.63
2022-11-18T11:48:18.754Z,96569.88
2022-11-18T11:51:04.398Z,96561.91
2022-11-18T11:54:23.659Z,96559.38
2022-11-18T11:56:59.075Z,96570.34
2022-11-18T11:59:32.979Z,96569.47
2022-11-18T12:02:36.880Z,96565.81
2022-11-18T12:05:18.939Z,96554.25
2022-11-18T12:07:54.892Z,96549.16
2022-11-18T12:10:38.954Z,96551.34
2022-11-18T12:13:31.166Z,96547.78
2022-11-18T12:16:19.115Z,96546.50
2022-11-18T12:18:52.535Z,96544.94
2022-11-18T12:21:58.263Z,96539.13
2022-11-18T12:24:36.455Z,96539.13
2022-11-18T12:27:15.858Z,96535.81
2022-11-18T12:29:56.445Z,96538.94
2022-11-18T12:32:32.669Z,96533.03
2022-11-18T12:35:05.572Z,96532.47
2022-11-18T12:37:57.821Z,96520.06
2022-11-18T12:40:41.335Z,96527.81
2022-11-18T12:44:06.625Z,96531.63
2022-11-18T12:46:55.928Z,96533.69
2022-11-18T12:50:12.724Z,96533.78
2022-11-18T12:52:54.905Z,96530.94
2022-11-18T12:55:34.571Z,96538.31
2022-11-18T12:58:03.495Z,96534.34
2022-11-18T13:00:52.665Z,96534.34
2022-11-18T13:03:29.622Z,96541.59
2022-11-18T13:06:07.712Z,96540.31
2022-11-18T13:08:38.894Z,96539.19
2022-11-18T13:11:34.081Z,96532.50
2022-11-18T13:14:23.247Z,96529.84
2022-11-18T13:17:15.650Z,96528.16
2022-11-18T13:19:44.634Z,96526.84
2022-11-18T13:22:36.930Z,96519.31
2022-11-18T13:25:22.950Z,96523.53
2022-11-18T13:28:02.654Z,96518.16
2022-11-18T13:30:34.743Z,96515.94
2022-11-18T13:33:03.813Z,96521.53
2022-11-18T13:35:32.759Z,96522.09
2022-11-18T13:38:08.219Z,96516.84
2022-11-18T13:41:04.576Z,96528.38
2022-11-18T13:43:34.694Z,96521.66
2022-11-18T13:46:08.188Z,96534.53
2022-11-18T13:48:40.649Z,96537.88
2022-11-18T13:51:09.671Z,96535.63
2022-11-18T13:53:41.216Z,96535.63
2022-11-18T13:56:21.296Z,96542.78
2022-11-18T14:01:54.331Z,96553.09
2022-11-18T14:04:26.497Z,96557.13
2022-11-18T14:07:15.535Z,96565.19
2022-11-18T14:09:55.297Z,96573.13
2022-11-18T14:12:29.006Z,96572.13
2022-11-18T14:15:21.845Z,96567.75
2022-11-18T14:17:54.469Z,96570.53
2022-11-18T14:20:25.006Z,96581.94
2022-11-18T14:23:00.104Z,96589.66
2022-11-18T14:25:33.077Z,96589.97
2022-11-18T14:28:21.310Z,96600.31
2022-11-18T14:31:23.384Z,96598.38
2022-11-18T14:34:25.605Z,96605.03
2022-11-18T14:36:56.963Z,96598.72
2022-11-18T14:39:28.973Z,96594.91
2022-11-18T14:41:59.321Z,96602.28
2022-11-18T14:44:30.634Z,96599.47
2022-11-18T14:47:01.559Z,96603.06
2022-11-18T14:49:32.850Z,96602.28
2022-11-18T14:52:04.597Z,96601.59
2022-11-18T14:54:34.167Z,96610.50
2022-11-18T14:57:06.888Z,96603.34
2022-11-18T14:59:37.928Z,96598.78
2022-11-18T15:02:07.944Z,96602.13
2022-11-18T15:04:37.151Z,96603.13
2022-11-18T15:07:07.832Z,96597.97
2022-11-18T15:09:36.786Z,96585.63
2022-11-18T15:12:06.680Z,96580.13
2022-11-18T15:14:37.107Z,96588.88
2022-11-18T15:17:06.621Z,96587.66
2022-11-18T15:19:37.178Z,96604.44
2022-11-18T15:22:06.232Z,96602.97
2022-11-18T15:24:35.153Z,96602.53
2022-11-18T15:27:05.659Z,96602.88
2022-11-18T15:29:34.689Z,96619.22
2022-11-18T15:32:05.568Z,96617.22
2022-11-18T15:34:34.500Z,96615.97
2022-11-18T15:37:03.853Z,96621.66
2022-11-18T15:39:32.837Z,96621.41
2022-11-18T15:42:01.830Z,96626.66
2022-11-18T15:44:30.910Z,96614.25
2022-11-18T15:47:00.147Z,96615.91
2022-11-18T15:49:31.281Z,96631.56
2022-11-18T15:52:00.311Z,96634.13
2022-11-18T15:54:30.008Z,96637.69
2022-11-18T15:56:58.959Z,96638.91
2022-11-18T15:59:27.898Z,96643.47
2022-11-18T16:01:57.571Z,96650.63
2022-11-18T16:04:27.344Z,96660.94
2022-11-18T16:07:00.106Z,96658.38
2022-11-18T16:09:49.486Z,96658.50
2022-11-18T16:12:36.371Z,96675.94
2022-11-18T16:15:23.257Z,96678.22
2022-11-18T16:17:52.235Z,96679.44
2022-11-18T16:20:21.258Z,96681.38
2022-11-18T16:22:52.019Z,96692.31
2022-11-18T16:25:21.393Z,96696.78
2022-11-18T16:27:50.383Z,96693.78
2022-11-18T16:30:37.608Z,96695.63
2022-11-18T16:33:07.014Z,96698.44
2022-11-18T16:35:36.214Z,96697.81
2022-11-18T16:38:09.469Z,96701.47
2022-11-18T16:40:38.390Z,96706.22
2022-11-18T16:43:07.332Z,96708.66
2022-11-18T16:45:36.704Z,96713.56
2022-11-18T16:48:06.015Z,96717.03
2022-11-18T16:50:34.988Z,96721.06
2022-11-18T16:53:06.595Z,96719.50
2022-11-18T16:55:37.050Z,96718.25
2022-11-18T16:58:06.049Z,96715.47
2022-11-18T17:01:09.137Z,96710.22
2022-11-18T17:03:24.065Z,96726.66
2022-11-18T17:05:52.973Z,96728.78
2022-11-18T17:08:21.945Z,96725.53
2022-11-18T17:10:52.299Z,96732.59
2022-11-18T17:13:21.369Z,96730.25
2022-11-18T17:15:50.301Z,96736.72
2022-11-18T17:18:19.276Z,96735.16
2022-11-18T17:20:49.207Z,96735.94
2022-11-18T17:23:18.136Z,96737.50
2022-11-18T17:25:48.546Z,96743.09
2022-11-18T17:28:19.013Z,96737.50
2022-11-18T17:30:50.109Z,96748.59
2022-11-18T17:33:19.382Z,96736.81
2022-11-18T17:35:48.530Z,96753.59
2022-11-18T17:38:17.489Z,96752.63
2022-11-18T17:40:53.558Z,96751.31
2022-11-18T17:43:24.638Z,96754.13
2022-11-18T17:45:55.082Z,96754.97
2022-11-18T17:48:25.398Z,96754.97
2022-11-18T17:50:55.004Z,96763.81
2022-11-18T17:53:23.937Z,96772.19
2022-11-18T17:55:53.035Z,96771.25
2022-11-18T17:58:23.810Z,96774.06
2022-11-18T18:00:52.923Z,96786.03
2022-11-18T18:03:21.856Z,96792.34
2022-11-18T18:05:50.807Z,96787.69
2022-11-18T18:08:19.882Z,96794.84
2022-11-18T18:10:48.826Z,96794.69
2022-11-18T18:13:35.431Z,96798.22
2022-11-18T18:16:06.421Z,96806.69
2022-11-18T18:18:35.370Z,96805.19
2022-11-18T18:21:07.456Z,96808.69
2022-11-18T18:23:38.853Z,96811.47
2022-11-18T18:26:10.198Z,96810.78
2022-11-18T18:28:39.600Z,96810.94
2022-11-18T18:31:12.036Z,96811.81
2022-11-18T18:33:42.622Z,96815.03
2022-11-18T18:36:15.267Z,96809.53
2022-11-18T18:38:45.037Z,96818.81
2022-11-18T18:41:16.719Z,96819.16
2022-11-18T18:43:46.447Z,96823.19
2022-11-18T18:46:30.784Z,96828.06
2022-11-18T18:49:05.114Z,96821.25
2022-11-18T18:51:38.001Z,96834.38
2022-11-18T18:54:08.690Z,96836.72
2022-11-18T18:56:38.631Z,96835.22
2022-11-18T18:59:08.528Z,96847.91
2022-11-18T19:01:39.991Z,96847.84
2022-11-18T19:04:13.129Z,96852.19
2022-11-18T19:09:31.442Z,96855.63
2022-11-18T19:12:18.154Z,96864.44
2022-11-18T19:14:47.905Z,96862.88
2022-11-18T19:17:18.251Z,96864.53
2022-11-18T19:20:04.614Z,96878.88
2022-11-18T19:22:34.787Z,96884.03
2022-11-18T19:25:03.740Z,96885.44
2022-11-18T19:27:33.927Z,96890.13
2022-11-18T19:30:03.223Z,96908.13
2022-11-18T19:32:36.988Z,96906.59
2022-11-18T19:35:07.680Z,96910.59
2022-11-18T19:37:37.008Z,96924.59
2022-11-18T19:40:10.384Z,96931.75
2022-11-18T19:42:40.750Z,96934.88
2022-11-18T19:45:11.195Z,96936.47
2022-11-18T19:47:41.689Z,96942.00
2022-11-18T19:50:11.446Z,96945.22
2022-11-18T19:52:40.556Z,96949.25
2022-11-18T19:55:10.726Z,96952.41
2022-11-18T19:57:39.708Z,96958.00
2022-11-18T20:00:10.883Z,96978.78
2022-11-18T20:02:43.785Z,96977.56
2022-11-18T20:05:30.081Z,96988.41
2022-11-18T20:07:59.031Z,96989.97
2022-11-18T20:10:27.916Z,96986.31
2022-11-18T20:12:57.766Z,96992.28
2022-11-18T20:15:26.824Z,97006.28
2022-11-18T20:17:57.356Z,97009.84
2022-11-18T20:20:26.315Z,97012.22
2022-11-18T20:22:55.570Z,97013.44
2022-11-18T20:25:24.632Z,97017.69
2022-11-18T20:27:53.623Z,97019.84
2022-11-18T20:30:22.639Z,97017.09
2022-11-18T20:32:51.951Z,97017.81
2022-11-18T20:35:22.355Z,97026.72
2022-11-18T20:37:51.317Z,97023.91
2022-11-18T20:40:20.764Z,97036.31
2022-11-18T20:43:07.121Z,97035.09
2022-11-18T20:45:36.058Z,97036.25
2022-11-18T20:48:06.407Z,97031.09
2022-11-18T20:50:39.252Z,97035.47
2022-11-18T20:53:08.200Z,97037.84
2022-11-18T20:55:38.137Z,97038.63
2022-11-18T20:58:07.161Z,97040.22
2022-11-18T21:00:36.082Z,97040.22
2022-11-18T21:03:05.613Z,97042.59
2022-11-18T21:05:36.221Z,97038.56
2022-11-18T21:08:07.318Z,97036.97
2022-11-18T21:10:36.933Z,97037.78
2022-11-18T21:13:23.054Z,97044.94
2022-11-18T21:15:52.288Z,97034.91
2022-11-18T21:18:21.259Z,97044.09
2022-11-18T21:21:07.843Z,97049.31
2022-11-18T21:23:38.209Z,97046.53
2022-11-18T21:26:12.834Z,97046.09
2022-11-18T21:28:42.292Z,97040.94
2022-11-18T21:31:11.680Z,97048.25
2022-11-18T21:33:40.630Z,97041.19
2022-11-18T21:36:09.963Z,97050.81
2022-11-18T21:38:40.261Z,97054.97
2022-11-18T21:41:09.837Z,97053.81
2022-11-18T21:46:30.286Z,97063.50
2022-11-18T21:49:00.531Z,97065.56
2022-11-18T21:51:31.533Z,97066.41
2022-11-18T21:54:02.714Z,97055.31
2022-11-18T21:56:32.598Z,97054.59
2022-11-18T21:59:02.655Z,97064.19
2022-11-18T22:01:33.902Z,97057.31
2022-11-18T22:04:05.766Z,97067.66
2022-11-18T22:06:35.378Z,97081.53
2022-11-18T22:09:06.485Z,97093.22
2022-11-18T22:11:35.455Z,97094.50
2022-11-18T22:14:06.127Z,97095.00
2022-11-18T22:16:35.058Z,97091.81
2022-11-18T22:19:08.155Z,97081.50
2022-11-18T22:21:37.458Z,97095.63
2022-11-18T22:24:09.144Z,97099.31
2022-11-18T22:26:38.117Z,97101.75
2022-11-18T22:29:07.238Z,97103.06
2022-11-18T22:31:36.338Z,97106.16
2022-11-18T22:34:05.593Z,97106.03
2022-11-18T22:36:34.511Z,97105.81
2022-11-18T22:39:03.756Z,97102.44
2022-11-18T22:41:51.204Z,97104.66
2022-11-18T22:44:20.226Z,97113.63
2022-11-18T22:46:49.134Z,97111.34
2022-11-18T22:49:18.228Z,97122.47
2022-11-18T22:51:47.293Z,97124.59
2022-11-18T22:54:37.759Z,97118.53
2022-11-18T22:57:06.742Z,97130.75
2022-11-18T22:59:36.336Z,97124.63
2022-11-18T23:02:05.659Z,97128.88
2022-11-18T23:04:34.678Z,97136.38
2022-11-18T23:07:03.798Z,97134.75
2022-11-18T23:09:32.753Z,97142.56
2022-11-18T23:12:18.900Z,97136.97
2022-11-18T23:14:49.200Z,97132.28
2022-11-18T23:17:18.414Z,97126.66
2022-11-18T23:19:47.303Z,97129.88
2022-11-18T23:22:16.322Z,97132.81
2022-11-18T23:24:45.220Z,97130.00
2022-11-18T23:27:14.182Z,97134.00
2022-11-18T23:29:43.037Z,97148.72
2022-11-18T23:32:13.306Z,97143.22
2022-11-18T23:34:42.230Z,97140.47
2022-11-18T23:37:11.149Z,97141.28
2022-11-18T23:39:40.098Z,97143.03
2022-11-18T23:42:09.022Z,97158.47
2022-11-18T23:44:47.223Z,97144.97
2022-11-18T23:47:18.406Z,97150.69
2022-11-18T23:49:47.333Z,97153.09
2022-11-18T23:52:17.014Z,97161.47
2022-11-18T23:54:45.883Z,97160.66
2022-11-18T23:57:14.846Z,97162.09
2022-11-18T23:59:43.868Z,97160.06
